KDPG

Michael AAF (Dugway Proving Ground) Airport

Dugway Proving Ground, Utah, USA
METAR KDPG 221350Z 12003KT 35SM FEW038 SCT065 BKN150 04/02 A3012 RMK VIRGA DSNT E AND SE-S SLP182 T00370021
Observed Flight Rules
Oct-22 @ 13:50 UTC (an hour ago) Visual Flight Rules
Wind Visibility Clouds
120° at 3 knots 35 miles
  • Few at 3,800' AGL
  • Scattered at 6,500' AGL
  • Broken at 15,000' AGL
Temperatures Readings
Current 4°C / 39°F
Dewpoint 2°C / 36°F
Humidity 87%
Altimeter 30.12" Hg
Pressure 1018.2 hPa
Elevation 1326
METAR KDPG 221350Z 12003KT 35SM FEW038 SCT065 BKN150 04/02 A3012 RMK VIRGA DSNT E AND SE-S SLP182 T00370021
Observed Flight Rules
Oct-22 @ 13:50 UTC
(an hour ago)
VFR
Wind Visibility
120° at 3 knots 35 miles
Clouds
  • Few at 3,800' AGL
  • Scattered at 6,500' AGL
  • Broken at 15,000' AGL
Temperature Dewpoint
4°C / 39°F 2°C / 36°F
Humidity Altimeter Pressure
87% 30.12" Hg 1018.2 hPa